sensor_id;sensor_type;location;lat;lon;timestamp;P1;durP1;ratioP1;P2;durP2;ratioP2
55497;SDS011;41357;52.806;18.268;2023-02-23T00:04:01;17.17;;;6.82;;
55497;SDS011;41357;52.806;18.268;2023-02-23T00:06:27;14.82;;;7.20;;
55497;SDS011;41357;52.806;18.268;2023-02-23T00:08:54;18.58;;;6.88;;
55497;SDS011;41357;52.806;18.268;2023-02-23T00:11:22;19.00;;;6.57;;
55497;SDS011;41357;52.806;18.268;2023-02-23T00:13:48;16.77;;;6.57;;
55497;SDS011;41357;52.806;18.268;2023-02-23T00:16:16;13.20;;;6.05;;
55497;SDS011;41357;52.806;18.268;2023-02-23T00:18:43;14.15;;;6.65;;
55497;SDS011;41357;52.806;18.268;2023-02-23T00:21:13;17.15;;;7.00;;
55497;SDS011;41357;52.806;18.268;2023-02-23T00:23:46;19.10;;;6.40;;
55497;SDS011;41357;52.806;18.268;2023-02-23T00:26:12;19.98;;;6.80;;
55497;SDS011;41357;52.806;18.268;2023-02-23T00:28:39;17.73;;;6.95;;
55497;SDS011;41357;52.806;18.268;2023-02-23T00:31:06;12.10;;;6.15;;
55497;SDS011;41357;52.806;18.268;2023-02-23T00:33:32;21.05;;;6.63;;
55497;SDS011;41357;52.806;18.268;2023-02-23T00:36:05;15.27;;;6.13;;
55497;SDS011;41357;52.806;18.268;2023-02-23T00:38:32;15.02;;;5.55;;
55497;SDS011;41357;52.806;18.268;2023-02-23T00:41:10;19.52;;;6.70;;
55497;SDS011;41357;52.806;18.268;2023-02-23T00:43:37;13.88;;;6.35;;
55497;SDS011;41357;52.806;18.268;2023-02-23T00:46:04;17.75;;;6.20;;
55497;SDS011;41357;52.806;18.268;2023-02-23T00:48:32;19.02;;;6.53;;
55497;SDS011;41357;52.806;18.268;2023-02-23T00:51:01;14.27;;;5.80;;
55497;SDS011;41357;52.806;18.268;2023-02-23T00:53:28;15.30;;;6.03;;
55497;SDS011;41357;52.806;18.268;2023-02-23T00:55:54;12.73;;;6.38;;
55497;SDS011;41357;52.806;18.268;2023-02-23T00:58:21;15.55;;;6.20;;
55497;SDS011;41357;52.806;18.268;2023-02-23T01:00:47;16.48;;;6.20;;
55497;SDS011;41357;52.806;18.268;2023-02-23T01:03:13;13.63;;;5.65;;
55497;SDS011;41357;52.806;18.268;2023-02-23T01:05:39;12.20;;;5.75;;
55497;SDS011;41357;52.806;18.268;2023-02-23T01:08:06;15.60;;;5.80;;
55497;SDS011;41357;52.806;18.268;2023-02-23T01:10:40;15.73;;;7.03;;
55497;SDS011;41357;52.806;18.268;2023-02-23T01:13:16;13.88;;;6.43;;
55497;SDS011;41357;52.806;18.268;2023-02-23T01:15:43;13.50;;;5.90;;
55497;SDS011;41357;52.806;18.268;2023-02-23T01:18:09;14.70;;;6.05;;
55497;SDS011;41357;52.806;18.268;2023-02-23T01:20:36;13.30;;;5.50;;
55497;SDS011;41357;52.806;18.268;2023-02-23T01:23:02;16.23;;;6.68;;
55497;SDS011;41357;52.806;18.268;2023-02-23T01:25:29;12.80;;;5.50;;
55497;SDS011;41357;52.806;18.268;2023-02-23T01:27:55;16.67;;;5.47;;
55497;SDS011;41357;52.806;18.268;2023-02-23T01:30:21;15.95;;;6.68;;
55497;SDS011;41357;52.806;18.268;2023-02-23T01:32:47;14.45;;;6.30;;
55497;SDS011;41357;52.806;18.268;2023-02-23T01:35:14;14.07;;;5.28;;
55497;SDS011;41357;52.806;18.268;2023-02-23T01:37:41;16.23;;;6.15;;
55497;SDS011;41357;52.806;18.268;2023-02-23T01:40:09;13.77;;;6.47;;
55497;SDS011;41357;52.806;18.268;2023-02-23T01:42:41;14.15;;;6.68;;
55497;SDS011;41357;52.806;18.268;2023-02-23T01:45:17;13.98;;;6.50;;
55497;SDS011;41357;52.806;18.268;2023-02-23T01:47:44;13.38;;;6.10;;
55497;SDS011;41357;52.806;18.268;2023-02-23T01:50:11;13.93;;;5.70;;
55497;SDS011;41357;52.806;18.268;2023-02-23T01:52:41;12.52;;;5.50;;
55497;SDS011;41357;52.806;18.268;2023-02-23T01:55:08;18.45;;;6.05;;
55497;SDS011;41357;52.806;18.268;2023-02-23T01:57:37;18.40;;;6.57;;
55497;SDS011;41357;52.806;18.268;2023-02-23T02:00:04;15.07;;;6.78;;
55497;SDS011;41357;52.806;18.268;2023-02-23T02:02:38;14.70;;;6.72;;
55497;SDS011;41357;52.806;18.268;2023-02-23T02:05:04;14.25;;;6.68;;
55497;SDS011;41357;52.806;18.268;2023-02-23T02:07:36;14.93;;;5.57;;
55497;SDS011;41357;52.806;18.268;2023-02-23T02:10:04;19.02;;;7.82;;
55497;SDS011;41357;52.806;18.268;2023-02-23T02:12:37;14.07;;;6.03;;
55497;SDS011;41357;52.806;18.268;2023-02-23T02:15:04;16.65;;;5.72;;
55497;SDS011;41357;52.806;18.268;2023-02-23T02:39:11;19.40;;;7.25;;
55497;SDS011;41357;52.806;18.268;2023-02-23T02:44:28;19.58;;;6.75;;
55497;SDS011;41357;52.806;18.268;2023-02-23T02:47:03;15.95;;;6.55;;
55497;SDS011;41357;52.806;18.268;2023-02-23T02:49:37;15.68;;;5.65;;
55497;SDS011;41357;52.806;18.268;2023-02-23T02:54:37;15.63;;;6.80;;
55497;SDS011;41357;52.806;18.268;2023-02-23T02:57:05;13.55;;;6.38;;
55497;SDS011;41357;52.806;18.268;2023-02-23T02:59:33;15.10;;;6.38;;
55497;SDS011;41357;52.806;18.268;2023-02-23T03:02:25;16.30;;;6.95;;
55497;SDS011;41357;52.806;18.268;2023-02-23T03:05:14;13.55;;;6.43;;
55497;SDS011;41357;52.806;18.268;2023-02-23T03:19:14;18.27;;;6.13;;
55497;SDS011;41357;52.806;18.268;2023-02-23T03:24:52;15.27;;;5.40;;
55497;SDS011;41357;52.806;18.268;2023-02-23T03:27:44;15.82;;;5.45;;
55497;SDS011;41357;52.806;18.268;2023-02-23T03:33:17;14.05;;;5.38;;
55497;SDS011;41357;52.806;18.268;2023-02-23T03:36:07;16.50;;;5.97;;
55497;SDS011;41357;52.806;18.268;2023-02-23T03:38:59;17.30;;;6.78;;
55497;SDS011;41357;52.806;18.268;2023-02-23T03:41:48;15.60;;;5.45;;
55497;SDS011;41357;52.806;18.268;2023-02-23T03:44:35;14.45;;;6.07;;
55497;SDS011;41357;52.806;18.268;2023-02-23T03:47:23;11.82;;;6.18;;
55497;SDS011;41357;52.806;18.268;2023-02-23T03:50:10;14.30;;;5.80;;
55497;SDS011;41357;52.806;18.268;2023-02-23T03:52:57;15.23;;;5.65;;
55497;SDS011;41357;52.806;18.268;2023-02-23T03:55:44;16.60;;;6.03;;
55497;SDS011;41357;52.806;18.268;2023-02-23T03:58:38;12.60;;;5.57;;
55497;SDS011;41357;52.806;18.268;2023-02-23T04:01:24;11.45;;;5.35;;
55497;SDS011;41357;52.806;18.268;2023-02-23T04:04:10;15.82;;;6.18;;
55497;SDS011;41357;52.806;18.268;2023-02-23T04:06:58;15.93;;;5.97;;
55497;SDS011;41357;52.806;18.268;2023-02-23T04:09:44;12.02;;;5.70;;
55497;SDS011;41357;52.806;18.268;2023-02-23T04:12:51;13.77;;;6.40;;
55497;SDS011;41357;52.806;18.268;2023-02-23T04:15:38;14.25;;;6.28;;
55497;SDS011;41357;52.806;18.268;2023-02-23T04:18:06;14.45;;;5.90;;
55497;SDS011;41357;52.806;18.268;2023-02-23T04:20:32;14.02;;;5.75;;
55497;SDS011;41357;52.806;18.268;2023-02-23T04:22:59;12.55;;;5.03;;
55497;SDS011;41357;52.806;18.268;2023-02-23T04:25:25;16.13;;;5.55;;
55497;SDS011;41357;52.806;18.268;2023-02-23T04:27:52;17.90;;;6.70;;
55497;SDS011;41357;52.806;18.268;2023-02-23T04:30:18;13.30;;;6.22;;
55497;SDS011;41357;52.806;18.268;2023-02-23T04:32:50;10.57;;;5.53;;
55497;SDS011;41357;52.806;18.268;2023-02-23T04:35:16;12.48;;;5.65;;
55497;SDS011;41357;52.806;18.268;2023-02-23T04:37:42;11.07;;;5.97;;
55497;SDS011;41357;52.806;18.268;2023-02-23T04:40:08;16.63;;;6.03;;
55497;SDS011;41357;52.806;18.268;2023-02-23T04:42:36;18.35;;;7.25;;
55497;SDS011;41357;52.806;18.268;2023-02-23T04:45:03;16.17;;;6.93;;
55497;SDS011;41357;52.806;18.268;2023-02-23T04:47:29;17.23;;;6.18;;
55497;SDS011;41357;52.806;18.268;2023-02-23T04:49:55;17.77;;;6.18;;
55497;SDS011;41357;52.806;18.268;2023-02-23T04:52:21;13.63;;;6.03;;
55497;SDS011;41357;52.806;18.268;2023-02-23T04:54:47;12.52;;;5.30;;
55497;SDS011;41357;52.806;18.268;2023-02-23T04:57:13;16.17;;;6.00;;
55497;SDS011;41357;52.806;18.268;2023-02-23T04:59:39;11.77;;;5.75;;
55497;SDS011;41357;52.806;18.268;2023-02-23T05:02:05;13.52;;;5.75;;
55497;SDS011;41357;52.806;18.268;2023-02-23T05:04:32;12.73;;;6.38;;
55497;SDS011;41357;52.806;18.268;2023-02-23T05:07:01;14.35;;;5.38;;
55497;SDS011;41357;52.806;18.268;2023-02-23T05:09:28;18.77;;;7.57;;
55497;SDS011;41357;52.806;18.268;2023-02-23T05:11:54;15.13;;;5.63;;
55497;SDS011;41357;52.806;18.268;2023-02-23T05:14:20;13.70;;;6.57;;
55497;SDS011;41357;52.806;18.268;2023-02-23T05:16:47;15.63;;;7.00;;
55497;SDS011;41357;52.806;18.268;2023-02-23T05:19:13;14.43;;;6.03;;
55497;SDS011;41357;52.806;18.268;2023-02-23T05:21:40;14.50;;;6.78;;
55497;SDS011;41357;52.806;18.268;2023-02-23T05:24:06;14.25;;;5.97;;
55497;SDS011;41357;52.806;18.268;2023-02-23T05:26:32;17.73;;;7.60;;
55497;SDS011;41357;52.806;18.268;2023-02-23T05:28:59;13.85;;;6.45;;
55497;SDS011;41357;52.806;18.268;2023-02-23T05:31:25;15.00;;;7.15;;
55497;SDS011;41357;52.806;18.268;2023-02-23T05:33:51;14.02;;;6.10;;
55497;SDS011;41357;52.806;18.268;2023-02-23T05:36:18;23.33;;;8.57;;
55497;SDS011;41357;52.806;18.268;2023-02-23T05:38:45;23.50;;;9.60;;
55497;SDS011;41357;52.806;18.268;2023-02-23T05:41:12;21.70;;;8.40;;
55497;SDS011;41357;52.806;18.268;2023-02-23T05:43:38;15.20;;;8.00;;
55497;SDS011;41357;52.806;18.268;2023-02-23T05:46:08;17.60;;;7.22;;
55497;SDS011;41357;52.806;18.268;2023-02-23T05:48:35;14.27;;;6.73;;
55497;SDS011;41357;52.806;18.268;2023-02-23T05:51:05;23.05;;;8.52;;
55497;SDS011;41357;52.806;18.268;2023-02-23T05:53:31;26.00;;;10.57;;
55497;SDS011;41357;52.806;18.268;2023-02-23T05:55:57;27.45;;;9.25;;
55497;SDS011;41357;52.806;18.268;2023-02-23T05:58:24;18.73;;;7.97;;
55497;SDS011;41357;52.806;18.268;2023-02-23T06:00:50;25.65;;;8.52;;
55497;SDS011;41357;52.806;18.268;2023-02-23T06:03:16;19.17;;;7.95;;
55497;SDS011;41357;52.806;18.268;2023-02-23T06:05:48;13.80;;;7.07;;
55497;SDS011;41357;52.806;18.268;2023-02-23T06:08:14;16.45;;;7.75;;
55497;SDS011;41357;52.806;18.268;2023-02-23T06:10:40;19.52;;;6.93;;
55497;SDS011;41357;52.806;18.268;2023-02-23T06:13:06;15.30;;;6.63;;
55497;SDS011;41357;52.806;18.268;2023-02-23T06:15:32;26.92;;;6.43;;
55497;SDS011;41357;52.806;18.268;2023-02-23T06:17:58;11.98;;;6.00;;
55497;SDS011;41357;52.806;18.268;2023-02-23T06:20:24;11.93;;;5.13;;
55497;SDS011;41357;52.806;18.268;2023-02-23T06:22:50;15.52;;;6.50;;
55497;SDS011;41357;52.806;18.268;2023-02-23T06:25:17;16.63;;;7.63;;
55497;SDS011;41357;52.806;18.268;2023-02-23T06:27:43;18.50;;;7.93;;
55497;SDS011;41357;52.806;18.268;2023-02-23T06:30:10;44.65;;;14.00;;
55497;SDS011;41357;52.806;18.268;2023-02-23T06:32:37;37.58;;;12.85;;
55497;SDS011;41357;52.806;18.268;2023-02-23T06:35:03;35.33;;;10.63;;
55497;SDS011;41357;52.806;18.268;2023-02-23T06:37:30;28.80;;;11.52;;
55497;SDS011;41357;52.806;18.268;2023-02-23T06:39:56;26.80;;;9.80;;
55497;SDS011;41357;52.806;18.268;2023-02-23T06:42:22;19.42;;;8.00;;
55497;SDS011;41357;52.806;18.268;2023-02-23T06:44:48;21.85;;;8.07;;
55497;SDS011;41357;52.806;18.268;2023-02-23T06:47:14;16.67;;;6.97;;
55497;SDS011;41357;52.806;18.268;2023-02-23T06:49:40;34.22;;;11.50;;
55497;SDS011;41357;52.806;18.268;2023-02-23T06:52:07;43.40;;;14.40;;
55497;SDS011;41357;52.806;18.268;2023-02-23T06:54:33;41.38;;;12.73;;
55497;SDS011;41357;52.806;18.268;2023-02-23T06:57:01;42.50;;;12.40;;
55497;SDS011;41357;52.806;18.268;2023-02-23T06:59:28;41.47;;;14.52;;
55497;SDS011;41357;52.806;18.268;2023-02-23T07:01:54;29.52;;;9.30;;
55497;SDS011;41357;52.806;18.268;2023-02-23T07:04:20;33.63;;;13.07;;
55497;SDS011;41357;52.806;18.268;2023-02-23T07:06:47;20.55;;;8.40;;
55497;SDS011;41357;52.806;18.268;2023-02-23T07:09:13;27.05;;;11.38;;
55497;SDS011;41357;52.806;18.268;2023-02-23T07:11:42;45.97;;;17.10;;
55497;SDS011;41357;52.806;18.268;2023-02-23T07:14:12;27.08;;;10.80;;
55497;SDS011;41357;52.806;18.268;2023-02-23T07:16:38;36.45;;;15.20;;
55497;SDS011;41357;52.806;18.268;2023-02-23T07:19:05;29.95;;;13.20;;
55497;SDS011;41357;52.806;18.268;2023-02-23T07:21:31;57.22;;;20.50;;
55497;SDS011;41357;52.806;18.268;2023-02-23T07:23:58;37.20;;;14.43;;
55497;SDS011;41357;52.806;18.268;2023-02-23T07:26:24;38.97;;;15.45;;
55497;SDS011;41357;52.806;18.268;2023-02-23T07:28:50;34.15;;;14.75;;
55497;SDS011;41357;52.806;18.268;2023-02-23T07:31:17;23.17;;;9.65;;
55497;SDS011;41357;52.806;18.268;2023-02-23T07:33:43;19.20;;;7.78;;
55497;SDS011;41357;52.806;18.268;2023-02-23T07:36:10;22.38;;;8.77;;
55497;SDS011;41357;52.806;18.268;2023-02-23T07:38:36;16.92;;;7.55;;
55497;SDS011;41357;52.806;18.268;2023-02-23T07:41:02;19.00;;;9.27;;
55497;SDS011;41357;52.806;18.268;2023-02-23T07:43:28;26.17;;;12.52;;
55497;SDS011;41357;52.806;18.268;2023-02-23T07:45:58;19.23;;;9.77;;
55497;SDS011;41357;52.806;18.268;2023-02-23T07:48:25;18.95;;;8.98;;
55497;SDS011;41357;52.806;18.268;2023-02-23T07:50:51;17.13;;;7.82;;
55497;SDS011;41357;52.806;18.268;2023-02-23T07:53:17;20.83;;;7.65;;
55497;SDS011;41357;52.806;18.268;2023-02-23T07:55:43;14.43;;;7.30;;
55497;SDS011;41357;52.806;18.268;2023-02-23T07:58:09;21.00;;;9.20;;
55497;SDS011;41357;52.806;18.268;2023-02-23T08:00:37;23.58;;;9.93;;
55497;SDS011;41357;52.806;18.268;2023-02-23T08:03:04;23.17;;;9.95;;
55497;SDS011;41357;52.806;18.268;2023-02-23T08:05:31;17.58;;;6.07;;
55497;SDS011;41357;52.806;18.268;2023-02-23T08:07:57;20.00;;;8.45;;
55497;SDS011;41357;52.806;18.268;2023-02-23T08:10:23;23.40;;;9.52;;
55497;SDS011;41357;52.806;18.268;2023-02-23T08:12:50;20.25;;;8.95;;
55497;SDS011;41357;52.806;18.268;2023-02-23T08:15:16;16.77;;;8.07;;
55497;SDS011;41357;52.806;18.268;2023-02-23T08:17:42;18.30;;;9.30;;
55497;SDS011;41357;52.806;18.268;2023-02-23T08:20:08;18.67;;;8.45;;
55497;SDS011;41357;52.806;18.268;2023-02-23T08:22:35;20.52;;;9.30;;
55497;SDS011;41357;52.806;18.268;2023-02-23T08:25:01;18.23;;;7.63;;
55497;SDS011;41357;52.806;18.268;2023-02-23T08:27:31;20.20;;;8.13;;
55497;SDS011;41357;52.806;18.268;2023-02-23T08:29:58;25.70;;;10.23;;
55497;SDS011;41357;52.806;18.268;2023-02-23T08:32:27;26.25;;;9.32;;
55497;SDS011;41357;52.806;18.268;2023-02-23T08:34:54;23.45;;;9.63;;
55497;SDS011;41357;52.806;18.268;2023-02-23T08:37:22;21.67;;;8.73;;
55497;SDS011;41357;52.806;18.268;2023-02-23T08:39:48;19.75;;;8.52;;
55497;SDS011;41357;52.806;18.268;2023-02-23T08:42:15;17.80;;;7.05;;
55497;SDS011;41357;52.806;18.268;2023-02-23T08:44:42;21.83;;;8.57;;
55497;SDS011;41357;52.806;18.268;2023-02-23T08:47:08;18.20;;;8.27;;
55497;SDS011;41357;52.806;18.268;2023-02-23T08:49:34;21.45;;;10.35;;
55497;SDS011;41357;52.806;18.268;2023-02-23T08:52:01;18.52;;;7.65;;
55497;SDS011;41357;52.806;18.268;2023-02-23T08:54:27;22.35;;;8.40;;
55497;SDS011;41357;52.806;18.268;2023-02-23T08:56:56;22.65;;;8.30;;
55497;SDS011;41357;52.806;18.268;2023-02-23T08:59:22;16.08;;;7.43;;
55497;SDS011;41357;52.806;18.268;2023-02-23T09:01:49;24.83;;;10.32;;
55497;SDS011;41357;52.806;18.268;2023-02-23T09:04:15;20.25;;;9.48;;
55497;SDS011;41357;52.806;18.268;2023-02-23T09:06:42;22.40;;;10.25;;
55497;SDS011;41357;52.806;18.268;2023-02-23T09:09:08;21.15;;;8.65;;
55497;SDS011;41357;52.806;18.268;2023-02-23T09:11:34;20.33;;;8.52;;
55497;SDS011;41357;52.806;18.268;2023-02-23T09:14:00;23.65;;;11.07;;
55497;SDS011;41357;52.806;18.268;2023-02-23T09:16:26;24.67;;;8.93;;
55497;SDS011;41357;52.806;18.268;2023-02-23T09:18:52;20.90;;;8.38;;
55497;SDS011;41357;52.806;18.268;2023-02-23T09:21:19;16.02;;;7.88;;
55497;SDS011;41357;52.806;18.268;2023-02-23T09:23:49;22.38;;;9.63;;
55497;SDS011;41357;52.806;18.268;2023-02-23T09:26:17;19.00;;;9.90;;
55497;SDS011;41357;52.806;18.268;2023-02-23T09:28:43;22.95;;;8.52;;
55497;SDS011;41357;52.806;18.268;2023-02-23T09:31:11;22.55;;;10.38;;
55497;SDS011;41357;52.806;18.268;2023-02-23T09:33:38;24.05;;;9.50;;
55497;SDS011;41357;52.806;18.268;2023-02-23T09:36:05;22.02;;;9.60;;
55497;SDS011;41357;52.806;18.268;2023-02-23T09:38:31;23.63;;;9.75;;
55497;SDS011;41357;52.806;18.268;2023-02-23T09:40:58;21.05;;;10.38;;
55497;SDS011;41357;52.806;18.268;2023-02-23T09:43:26;25.33;;;11.10;;
55497;SDS011;41357;52.806;18.268;2023-02-23T09:46:05;23.98;;;9.60;;
55497;SDS011;41357;52.806;18.268;2023-02-23T09:48:34;21.20;;;9.43;;
55497;SDS011;41357;52.806;18.268;2023-02-23T09:51:00;17.15;;;9.23;;
55497;SDS011;41357;52.806;18.268;2023-02-23T09:53:39;18.45;;;10.13;;
55497;SDS011;41357;52.806;18.268;2023-02-23T09:56:11;23.45;;;9.50;;
55497;SDS011;41357;52.806;18.268;2023-02-23T09:58:38;23.30;;;8.85;;
55497;SDS011;41357;52.806;18.268;2023-02-23T10:04:04;15.10;;;7.55;;
55497;SDS011;41357;52.806;18.268;2023-02-23T10:06:32;17.80;;;8.38;;
55497;SDS011;41357;52.806;18.268;2023-02-23T10:09:09;15.90;;;8.70;;
55497;SDS011;41357;52.806;18.268;2023-02-23T10:14:11;17.40;;;8.13;;
55497;SDS011;41357;52.806;18.268;2023-02-23T10:19:24;22.88;;;9.07;;
55497;SDS011;41357;52.806;18.268;2023-02-23T10:21:55;18.55;;;9.57;;
55497;SDS011;41357;52.806;18.268;2023-02-23T10:24:56;26.38;;;9.70;;
55497;SDS011;41357;52.806;18.268;2023-02-23T10:27:16;24.42;;;10.00;;
55497;SDS011;41357;52.806;18.268;2023-02-23T10:29:53;27.95;;;10.75;;
55497;SDS011;41357;52.806;18.268;2023-02-23T10:32:24;25.13;;;11.35;;
55497;SDS011;41357;52.806;18.268;2023-02-23T10:34:52;22.88;;;10.73;;
55497;SDS011;41357;52.806;18.268;2023-02-23T10:37:20;25.80;;;11.63;;
55497;SDS011;41357;52.806;18.268;2023-02-23T10:39:47;22.92;;;10.73;;
55497;SDS011;41357;52.806;18.268;2023-02-23T10:42:16;31.27;;;11.20;;
55497;SDS011;41357;52.806;18.268;2023-02-23T10:44:45;27.67;;;11.95;;
55497;SDS011;41357;52.806;18.268;2023-02-23T10:47:19;32.97;;;12.50;;
55497;SDS011;41357;52.806;18.268;2023-02-23T10:49:49;27.27;;;9.82;;
55497;SDS011;41357;52.806;18.268;2023-02-23T10:52:19;26.55;;;10.88;;
55497;SDS011;41357;52.806;18.268;2023-02-23T10:54:47;39.95;;;15.45;;
55497;SDS011;41357;52.806;18.268;2023-02-23T10:57:21;38.55;;;15.75;;
55497;SDS011;41357;52.806;18.268;2023-02-23T11:02:51;19.50;;;9.90;;
55497;SDS011;41357;52.806;18.268;2023-02-23T11:08:07;20.33;;;9.80;;
55497;SDS011;41357;52.806;18.268;2023-02-23T11:10:33;33.38;;;11.98;;
55497;SDS011;41357;52.806;18.268;2023-02-23T11:12:59;28.25;;;11.93;;
55497;SDS011;41357;52.806;18.268;2023-02-23T11:15:30;34.13;;;13.00;;
55497;SDS011;41357;52.806;18.268;2023-02-23T11:17:58;20.48;;;9.98;;
55497;SDS011;41357;52.806;18.268;2023-02-23T11:20:27;28.42;;;13.27;;
55497;SDS011;41357;52.806;18.268;2023-02-23T11:22:54;25.17;;;11.90;;
55497;SDS011;41357;52.806;18.268;2023-02-23T11:25:26;18.33;;;9.10;;
55497;SDS011;41357;52.806;18.268;2023-02-23T11:27:53;26.80;;;12.43;;
55497;SDS011;41357;52.806;18.268;2023-02-23T11:30:21;30.80;;;12.98;;
55497;SDS011;41357;52.806;18.268;2023-02-23T11:32:53;27.80;;;13.63;;
55497;SDS011;41357;52.806;18.268;2023-02-23T11:37:47;46.60;;;17.92;;
55497;SDS011;41357;52.806;18.268;2023-02-23T11:45:18;24.88;;;10.32;;
55497;SDS011;41357;52.806;18.268;2023-02-23T11:47:45;29.25;;;13.07;;
55497;SDS011;41357;52.806;18.268;2023-02-23T11:50:25;21.48;;;9.43;;
55497;SDS011;41357;52.806;18.268;2023-02-23T11:52:56;28.70;;;12.50;;
55497;SDS011;41357;52.806;18.268;2023-02-23T11:55:24;41.38;;;15.15;;
55497;SDS011;41357;52.806;18.268;2023-02-23T11:57:51;52.40;;;15.82;;
55497;SDS011;41357;52.806;18.268;2023-02-23T12:00:21;28.95;;;11.75;;
55497;SDS011;41357;52.806;18.268;2023-02-23T12:02:49;26.15;;;11.50;;
55497;SDS011;41357;52.806;18.268;2023-02-23T12:12:41;32.10;;;13.43;;
55497;SDS011;41357;52.806;18.268;2023-02-23T12:15:30;23.98;;;11.18;;
55497;SDS011;41357;52.806;18.268;2023-02-23T12:17:59;29.73;;;12.82;;
55497;SDS011;41357;52.806;18.268;2023-02-23T12:20:29;30.30;;;15.13;;
55497;SDS011;41357;52.806;18.268;2023-02-23T12:22:57;33.78;;;13.13;;
55497;SDS011;41357;52.806;18.268;2023-02-23T12:25:26;27.13;;;13.00;;
55497;SDS011;41357;52.806;18.268;2023-02-23T12:28:55;31.88;;;14.88;;
55497;SDS011;41357;52.806;18.268;2023-02-23T12:31:05;27.45;;;12.45;;
55497;SDS011;41357;52.806;18.268;2023-02-23T12:33:39;36.00;;;14.32;;
55497;SDS011;41357;52.806;18.268;2023-02-23T12:38:57;30.58;;;14.38;;
55497;SDS011;41357;52.806;18.268;2023-02-23T12:46:45;34.05;;;14.70;;
55497;SDS011;41357;52.806;18.268;2023-02-23T12:54:33;20.92;;;9.15;;
55497;SDS011;41357;52.806;18.268;2023-02-23T12:59:50;45.45;;;16.73;;
55497;SDS011;41357;52.806;18.268;2023-02-23T13:10:40;33.05;;;13.68;;
55497;SDS011;41357;52.806;18.268;2023-02-23T13:13:43;33.10;;;14.20;;
55497;SDS011;41357;52.806;18.268;2023-02-23T13:18:46;27.70;;;12.15;;
55497;SDS011;41357;52.806;18.268;2023-02-23T13:21:20;25.33;;;13.05;;
55497;SDS011;41357;52.806;18.268;2023-02-23T13:26:27;29.00;;;14.32;;
55497;SDS011;41357;52.806;18.268;2023-02-23T13:31:23;26.67;;;12.55;;
55497;SDS011;41357;52.806;18.268;2023-02-23T13:33:49;31.60;;;14.38;;
55497;SDS011;41357;52.806;18.268;2023-02-23T13:36:17;31.25;;;13.52;;
55497;SDS011;41357;52.806;18.268;2023-02-23T13:43:48;28.88;;;13.23;;
55497;SDS011;41357;52.806;18.268;2023-02-23T13:51:13;25.58;;;12.15;;
55497;SDS011;41357;52.806;18.268;2023-02-23T13:53:43;40.22;;;14.63;;
55497;SDS011;41357;52.806;18.268;2023-02-23T13:56:17;30.48;;;14.38;;
55497;SDS011;41357;52.806;18.268;2023-02-23T13:58:45;40.63;;;16.13;;
55497;SDS011;41357;52.806;18.268;2023-02-23T14:01:16;37.15;;;15.63;;
55497;SDS011;41357;52.806;18.268;2023-02-23T14:03:53;32.70;;;13.13;;
55497;SDS011;41357;52.806;18.268;2023-02-23T14:06:21;30.10;;;13.65;;
55497;SDS011;41357;52.806;18.268;2023-02-23T14:08:50;22.85;;;11.82;;
55497;SDS011;41357;52.806;18.268;2023-02-23T14:11:32;32.65;;;14.73;;
55497;SDS011;41357;52.806;18.268;2023-02-23T14:14:00;30.50;;;13.52;;
55497;SDS011;41357;52.806;18.268;2023-02-23T14:16:26;26.52;;;12.13;;
55497;SDS011;41357;52.806;18.268;2023-02-23T14:22:04;30.95;;;12.82;;
55497;SDS011;41357;52.806;18.268;2023-02-23T14:24:15;24.98;;;12.85;;
55497;SDS011;41357;52.806;18.268;2023-02-23T14:26:43;34.67;;;14.13;;
55497;SDS011;41357;52.806;18.268;2023-02-23T14:29:19;28.48;;;12.65;;
55497;SDS011;41357;52.806;18.268;2023-02-23T14:31:52;32.45;;;13.13;;
55497;SDS011;41357;52.806;18.268;2023-02-23T14:34:19;29.67;;;12.77;;
55497;SDS011;41357;52.806;18.268;2023-02-23T14:36:48;29.48;;;12.98;;
55497;SDS011;41357;52.806;18.268;2023-02-23T14:41:48;33.60;;;14.55;;
55497;SDS011;41357;52.806;18.268;2023-02-23T14:44:23;37.08;;;13.75;;
55497;SDS011;41357;52.806;18.268;2023-02-23T14:46:55;51.28;;;18.95;;
55497;SDS011;41357;52.806;18.268;2023-02-23T14:49:22;44.58;;;17.90;;
55497;SDS011;41357;52.806;18.268;2023-02-23T14:51:50;35.83;;;15.95;;
55497;SDS011;41357;52.806;18.268;2023-02-23T14:54:21;33.97;;;14.95;;
55497;SDS011;41357;52.806;18.268;2023-02-23T14:56:49;36.08;;;15.02;;
55497;SDS011;41357;52.806;18.268;2023-02-23T14:59:19;28.95;;;13.23;;
55497;SDS011;41357;52.806;18.268;2023-02-23T15:01:46;38.58;;;15.50;;
55497;SDS011;41357;52.806;18.268;2023-02-23T15:04:15;30.67;;;14.15;;
55497;SDS011;41357;52.806;18.268;2023-02-23T15:06:41;29.42;;;13.90;;
55497;SDS011;41357;52.806;18.268;2023-02-23T15:09:18;34.75;;;14.15;;
55497;SDS011;41357;52.806;18.268;2023-02-23T15:11:47;44.50;;;16.92;;
55497;SDS011;41357;52.806;18.268;2023-02-23T15:14:14;31.67;;;14.27;;
55497;SDS011;41357;52.806;18.268;2023-02-23T15:16:42;35.00;;;14.63;;
55497;SDS011;41357;52.806;18.268;2023-02-23T15:19:18;40.85;;;17.52;;
55497;SDS011;41357;52.806;18.268;2023-02-23T15:21:50;41.17;;;16.20;;
55497;SDS011;41357;52.806;18.268;2023-02-23T15:24:20;45.03;;;16.35;;
55497;SDS011;41357;52.806;18.268;2023-02-23T15:26:48;39.53;;;14.90;;
55497;SDS011;41357;52.806;18.268;2023-02-23T15:29:21;43.75;;;18.17;;
55497;SDS011;41357;52.806;18.268;2023-02-23T15:31:52;44.92;;;19.05;;
55497;SDS011;41357;52.806;18.268;2023-02-23T15:34:22;42.78;;;18.08;;
55497;SDS011;41357;52.806;18.268;2023-02-23T15:37:03;48.30;;;17.88;;
55497;SDS011;41357;52.806;18.268;2023-02-23T15:41:59;38.80;;;16.13;;
55497;SDS011;41357;52.806;18.268;2023-02-23T15:44:26;40.70;;;17.50;;
55497;SDS011;41357;52.806;18.268;2023-02-23T15:47:00;41.95;;;17.95;;
55497;SDS011;41357;52.806;18.268;2023-02-23T15:49:29;47.38;;;16.92;;
55497;SDS011;41357;52.806;18.268;2023-02-23T15:52:05;53.53;;;23.17;;
55497;SDS011;41357;52.806;18.268;2023-02-23T15:54:33;46.15;;;20.63;;
55497;SDS011;41357;52.806;18.268;2023-02-23T15:57:06;48.75;;;20.17;;
55497;SDS011;41357;52.806;18.268;2023-02-23T15:59:38;59.03;;;21.73;;
55497;SDS011;41357;52.806;18.268;2023-02-23T16:02:11;60.92;;;23.65;;
55497;SDS011;41357;52.806;18.268;2023-02-23T16:04:40;66.65;;;23.73;;
55497;SDS011;41357;52.806;18.268;2023-02-23T16:07:20;65.07;;;22.05;;
55497;SDS011;41357;52.806;18.268;2023-02-23T16:10:31;51.85;;;20.88;;
55497;SDS011;41357;52.806;18.268;2023-02-23T16:12:35;51.17;;;20.63;;
55497;SDS011;41357;52.806;18.268;2023-02-23T16:15:04;39.22;;;17.80;;
55497;SDS011;41357;52.806;18.268;2023-02-23T16:17:44;92.82;;;33.90;;
55497;SDS011;41357;52.806;18.268;2023-02-23T16:20:18;98.50;;;41.00;;
55497;SDS011;41357;52.806;18.268;2023-02-23T16:22:46;84.32;;;35.42;;
55497;SDS011;41357;52.806;18.268;2023-02-23T16:25:17;51.50;;;22.52;;
55497;SDS011;41357;52.806;18.268;2023-02-23T16:27:44;52.50;;;21.38;;
55497;SDS011;41357;52.806;18.268;2023-02-23T16:32:41;44.03;;;17.60;;
55497;SDS011;41357;52.806;18.268;2023-02-23T16:35:17;52.42;;;19.90;;
55497;SDS011;41357;52.806;18.268;2023-02-23T16:37:48;58.78;;;22.40;;
55497;SDS011;41357;52.806;18.268;2023-02-23T16:40:15;63.50;;;20.08;;